CheckWX is a tool to help pilots better visualize weather data.  It is not intended as a substitute for an official pre-flight weather briefing.

19:59:04 UTC

UMKK TAF
Khrabrovo Airport
Kaliningrad, Russian Federation
TAF UMKK 251659Z 2518/2618 14003G08MPS CAVOK BECMG 2600/2602 18003G08MPS BECMG 2605/2607 22003G08MPS SCT011 BECMG 2608/2610 26005MPS BECMG 2614/2616 30005G10MPS

Jun-25@
18:00 UTC

Jun-25 @ 18:00 UTC

Jun-26@
00:00 UTC

Jun-26 @ 00:00 UTC

TAF UMKK 251659Z 2518/2618 14003G08MPS CAVOK
Wind
  • 140° at 6 KTS
  • {Gusting to 16 KTS
Conditions
No significant weather
Cloud Levels
  • No significant clouds

Jun-26@
00:00 UTC

Jun-26 @ 00:00 UTC

Jun-26@
05:00 UTC

Jun-26 @ 05:00 UTC

BECMG 2600/2602 18003G08MPS

Becoming

Becoming Conditions expected by Wed, Jun 26, 2019 @ 02:00 UTC

Wind
  • 180° at 6 KTS
  • {Gusting to 16 KTS
Conditions
No significant weather
Cloud Levels
  • No significant clouds

Jun-26@
05:00 UTC

Jun-26 @ 05:00 UTC

Jun-26@
08:00 UTC

Jun-26 @ 08:00 UTC

BECMG 2605/2607 22003G08MPS SCT011

Becoming

Becoming Conditions expected by Wed, Jun 26, 2019 @ 07:00 UTC

Wind
  • 220° at 6 KTS
  • {Gusting to 16 KTS
Conditions
No significant weather
Cloud Levels
  • Scattered at 1,100' AGL

Jun-26@
08:00 UTC

Jun-26 @ 08:00 UTC

Jun-26@
14:00 UTC

Jun-26 @ 14:00 UTC

BECMG 2608/2610 26005MPS

Becoming

Becoming Conditions expected by Wed, Jun 26, 2019 @ 10:00 UTC

Wind
  • 260° at 10 KTS
Conditions
No significant weather
Cloud Levels
  • Scattered at 1,100' AGL

Jun-26@
14:00 UTC

Jun-26 @ 14:00 UTC

Jun-26@
18:00 UTC

Jun-26 @ 18:00 UTC

BECMG 2614/2616 30005G10MPS

Becoming

Becoming Conditions expected by Wed, Jun 26, 2019 @ 16:00 UTC

Wind
  • 300° at 10 KTS
  • {Gusting to 19 KTS
Conditions
No significant weather
Cloud Levels
  • Scattered at 1,100' AGL